sensor_id;sensor_type;location;lat;lon;timestamp;pressure;altitude;pressure_sealevel;temperature;humidity
45253;BME280;63171;50.520;30.486;2023-06-19T00:02:30;99698.66;;;25.88;40.06
45253;BME280;63171;50.520;30.486;2023-06-19T00:03:21;99696.25;;;25.93;40.52
45253;BME280;63171;50.520;30.486;2023-06-19T00:04:11;99704.91;;;25.95;40.03
45253;BME280;63171;50.520;30.486;2023-06-19T00:05:02;99700.38;;;25.96;40.47
45253;BME280;63171;50.520;30.486;2023-06-19T00:05:53;99704.31;;;26.00;40.37
45253;BME280;63171;50.520;30.486;2023-06-19T00:06:44;99699.97;;;25.99;40.64
45253;BME280;63171;50.520;30.486;2023-06-19T00:07:36;99695.84;;;25.96;40.52
45253;BME280;63171;50.520;30.486;2023-06-19T00:08:27;99700.06;;;25.77;40.66
45253;BME280;63171;50.520;30.486;2023-06-19T00:09:16;99696.00;;;25.60;40.28
45253;BME280;63171;50.520;30.486;2023-06-19T00:10:07;99702.50;;;25.44;40.69
45253;BME280;63171;50.520;30.486;2023-06-19T00:10:57;99697.28;;;25.36;40.89
45253;BME280;63171;50.520;30.486;2023-06-19T00:11:47;99706.34;;;25.35;40.69
45253;BME280;63171;50.520;30.486;2023-06-19T00:12:38;99703.09;;;25.40;41.12
45253;BME280;63171;50.520;30.486;2023-06-19T00:13:28;99701.56;;;25.30;41.03
45253;BME280;63171;50.520;30.486;2023-06-19T00:14:18;99700.53;;;25.25;41.14
45253;BME280;63171;50.520;30.486;2023-06-19T00:15:09;99709.63;;;25.30;40.86
45253;BME280;63171;50.520;30.486;2023-06-19T00:16:00;99702.53;;;25.23;41.13
45253;BME280;63171;50.520;30.486;2023-06-19T00:16:50;99716.22;;;25.28;41.37
45253;BME280;63171;50.520;30.486;2023-06-19T00:17:40;99709.75;;;25.22;41.38
45253;BME280;63171;50.520;30.486;2023-06-19T00:18:30;99707.47;;;25.19;41.45
45253;BME280;63171;50.520;30.486;2023-06-19T00:19:29;99699.00;;;25.16;41.37
45253;BME280;63171;50.520;30.486;2023-06-19T00:20:18;99696.53;;;25.21;41.54
45253;BME280;63171;50.520;30.486;2023-06-19T00:21:11;99695.41;;;25.37;41.92
45253;BME280;63171;50.520;30.486;2023-06-19T00:22:00;99692.75;;;25.37;41.82
45253;BME280;63171;50.520;30.486;2023-06-19T00:22:52;99692.59;;;25.45;41.72
45253;BME280;63171;50.520;30.486;2023-06-19T00:23:42;99693.03;;;25.48;41.82
45253;BME280;63171;50.520;30.486;2023-06-19T00:24:33;99696.84;;;25.60;41.83
45253;BME280;63171;50.520;30.486;2023-06-19T00:25:22;99693.91;;;25.55;41.65
45253;BME280;63171;50.520;30.486;2023-06-19T00:26:13;99698.59;;;25.47;41.57
45253;BME280;63171;50.520;30.486;2023-06-19T00:27:06;99699.19;;;25.42;42.00
45253;BME280;63171;50.520;30.486;2023-06-19T00:27:57;99698.75;;;25.39;42.06
45253;BME280;63171;50.520;30.486;2023-06-19T00:28:46;99692.50;;;25.31;42.02
45253;BME280;63171;50.520;30.486;2023-06-19T00:29:37;99696.41;;;25.29;42.03
45253;BME280;63171;50.520;30.486;2023-06-19T00:30:27;99690.53;;;25.40;41.97
45253;BME280;63171;50.520;30.486;2023-06-19T00:31:21;99689.72;;;25.46;42.13
45253;BME280;63171;50.520;30.486;2023-06-19T00:32:12;99689.31;;;25.49;42.25
45253;BME280;63171;50.520;30.486;2023-06-19T00:33:05;99695.34;;;25.51;42.00
45253;BME280;63171;50.520;30.486;2023-06-19T00:33:55;99690.25;;;25.35;41.88
45253;BME280;63171;50.520;30.486;2023-06-19T00:34:48;99690.34;;;25.48;42.28
45253;BME280;63171;50.520;30.486;2023-06-19T00:35:38;99691.03;;;25.57;42.10
45253;BME280;63171;50.520;30.486;2023-06-19T00:36:31;99689.38;;;25.56;42.40
45253;BME280;63171;50.520;30.486;2023-06-19T00:37:21;99687.09;;;25.53;42.19
45253;BME280;63171;50.520;30.486;2023-06-19T00:38:12;99693.88;;;25.49;41.86
45253;BME280;63171;50.520;30.486;2023-06-19T00:39:02;99687.53;;;25.56;42.02
45253;BME280;63171;50.520;30.486;2023-06-19T00:39:53;99686.72;;;25.62;42.17
45253;BME280;63171;50.520;30.486;2023-06-19T00:40:43;99686.72;;;25.62;42.25
45253;BME280;63171;50.520;30.486;2023-06-19T00:41:36;99685.63;;;25.50;41.90
45253;BME280;63171;50.520;30.486;2023-06-19T00:42:27;99690.63;;;25.60;42.08
45253;BME280;63171;50.520;30.486;2023-06-19T00:43:17;99691.53;;;25.67;42.04
45253;BME280;63171;50.520;30.486;2023-06-19T00:44:08;99693.63;;;25.72;42.17
45253;BME280;63171;50.520;30.486;2023-06-19T00:44:57;99695.72;;;25.76;42.17
45253;BME280;63171;50.520;30.486;2023-06-19T00:45:47;99693.22;;;25.75;42.28
45253;BME280;63171;50.520;30.486;2023-06-19T00:46:40;99691.59;;;25.74;42.19
45253;BME280;63171;50.520;30.486;2023-06-19T00:47:30;99693.63;;;25.72;42.40
45253;BME280;63171;50.520;30.486;2023-06-19T00:48:21;99698.75;;;25.67;42.47
45253;BME280;63171;50.520;30.486;2023-06-19T00:49:11;99702.09;;;25.69;42.73
45253;BME280;63171;50.520;30.486;2023-06-19T00:50:02;99702.44;;;25.66;42.54
45253;BME280;63171;50.520;30.486;2023-06-19T00:50:52;99697.09;;;25.66;42.80
45253;BME280;63171;50.520;30.486;2023-06-19T00:51:44;99703.53;;;25.71;43.07
45253;BME280;63171;50.520;30.486;2023-06-19T00:52:36;99703.97;;;25.75;43.62
45253;BME280;63171;50.520;30.486;2023-06-19T00:53:27;99701.28;;;25.75;43.71
45253;BME280;63171;50.520;30.486;2023-06-19T00:54:17;99694.88;;;25.76;43.88
45253;BME280;63171;50.520;30.486;2023-06-19T00:55:08;99692.22;;;25.76;44.28
45253;BME280;63171;50.520;30.486;2023-06-19T00:55:59;99691.19;;;25.77;44.29
45253;BME280;63171;50.520;30.486;2023-06-19T00:56:50;99696.53;;;25.77;44.41
45253;BME280;63171;50.520;30.486;2023-06-19T00:57:40;99700.25;;;25.76;44.15
45253;BME280;63171;50.520;30.486;2023-06-19T00:58:31;99700.44;;;25.74;44.70
45253;BME280;63171;50.520;30.486;2023-06-19T00:59:21;99707.69;;;25.74;44.66
45253;BME280;63171;50.520;30.486;2023-06-19T01:00:12;99702.91;;;25.69;44.24
45253;BME280;63171;50.520;30.486;2023-06-19T01:01:02;99709.81;;;25.57;44.63
45253;BME280;63171;50.520;30.486;2023-06-19T01:01:53;99703.94;;;25.40;44.29
45253;BME280;63171;50.520;30.486;2023-06-19T01:02:43;99707.53;;;25.26;44.35
45253;BME280;63171;50.520;30.486;2023-06-19T01:03:34;99708.19;;;25.34;44.69
45253;BME280;63171;50.520;30.486;2023-06-19T01:04:25;99709.03;;;25.35;44.76
45253;BME280;63171;50.520;30.486;2023-06-19T01:05:16;99709.38;;;25.25;44.80
45253;BME280;63171;50.520;30.486;2023-06-19T01:06:10;99704.28;;;25.09;44.83
45253;BME280;63171;50.520;30.486;2023-06-19T01:07:09;99710.72;;;25.15;45.05
45253;BME280;63171;50.520;30.486;2023-06-19T01:08:03;99710.41;;;25.03;45.06
45253;BME280;63171;50.520;30.486;2023-06-19T01:08:59;99704.72;;;24.91;44.86
45253;BME280;63171;50.520;30.486;2023-06-19T01:09:55;99707.59;;;24.90;44.62
45253;BME280;63171;50.520;30.486;2023-06-19T01:10:51;99709.63;;;24.88;44.79
45253;BME280;63171;50.520;30.486;2023-06-19T01:11:47;99707.09;;;25.01;44.98
45253;BME280;63171;50.520;30.486;2023-06-19T01:12:42;99712.72;;;25.06;45.09
45253;BME280;63171;50.520;30.486;2023-06-19T01:13:42;99707.47;;;24.98;44.99
45253;BME280;63171;50.520;30.486;2023-06-19T01:14:38;99704.94;;;25.11;45.05
45253;BME280;63171;50.520;30.486;2023-06-19T01:15:30;99705.22;;;25.23;45.37
45253;BME280;63171;50.520;30.486;2023-06-19T01:16:20;99705.06;;;25.24;45.33
45253;BME280;63171;50.520;30.486;2023-06-19T01:17:11;99706.53;;;25.05;45.34
45253;BME280;63171;50.520;30.486;2023-06-19T01:18:02;99713.41;;;25.15;45.02
45253;BME280;63171;50.520;30.486;2023-06-19T01:18:53;99711.25;;;25.25;45.51
45253;BME280;63171;50.520;30.486;2023-06-19T01:19:44;99710.88;;;25.34;45.36
45253;BME280;63171;50.520;30.486;2023-06-19T01:20:33;99712.06;;;25.25;45.50
45253;BME280;63171;50.520;30.486;2023-06-19T01:21:24;99709.38;;;25.25;45.40
45253;BME280;63171;50.520;30.486;2023-06-19T01:22:24;99710.16;;;25.19;45.57
45253;BME280;63171;50.520;30.486;2023-06-19T01:23:15;99710.91;;;24.92;45.36
45253;BME280;63171;50.520;30.486;2023-06-19T01:24:05;99716.06;;;24.72;45.42
45253;BME280;63171;50.520;30.486;2023-06-19T01:24:56;99718.91;;;24.70;45.62
45253;BME280;63171;50.520;30.486;2023-06-19T01:25:46;99718.38;;;24.75;45.25
45253;BME280;63171;50.520;30.486;2023-06-19T01:26:37;99712.47;;;24.65;45.77
45253;BME280;63171;50.520;30.486;2023-06-19T01:27:27;99713.94;;;24.67;45.75
45253;BME280;63171;50.520;30.486;2023-06-19T01:28:20;99717.97;;;24.78;45.94
45253;BME280;63171;50.520;30.486;2023-06-19T01:29:11;99718.94;;;24.92;46.01
45253;BME280;63171;50.520;30.486;2023-06-19T01:30:04;99717.63;;;25.02;45.75
45253;BME280;63171;50.520;30.486;2023-06-19T01:30:57;99717.97;;;24.78;45.48
45253;BME280;63171;50.520;30.486;2023-06-19T01:31:55;99713.88;;;24.82;45.46
45253;BME280;63171;50.520;30.486;2023-06-19T01:32:54;99717.72;;;24.73;45.63
45253;BME280;63171;50.520;30.486;2023-06-19T01:33:47;99717.00;;;24.64;45.89
45253;BME280;63171;50.520;30.486;2023-06-19T01:34:38;99721.16;;;24.67;45.87
45253;BME280;63171;50.520;30.486;2023-06-19T01:35:33;99717.41;;;24.83;46.06
45253;BME280;63171;50.520;30.486;2023-06-19T01:36:24;99719.72;;;24.86;45.77
45253;BME280;63171;50.520;30.486;2023-06-19T01:37:15;99725.81;;;24.80;46.03
45253;BME280;63171;50.520;30.486;2023-06-19T01:38:08;99727.22;;;24.75;45.88
45253;BME280;63171;50.520;30.486;2023-06-19T01:38:58;99718.22;;;24.62;45.98
45253;BME280;63171;50.520;30.486;2023-06-19T01:39:50;99716.44;;;24.69;45.96
45253;BME280;63171;50.520;30.486;2023-06-19T01:40:40;99723.53;;;24.76;46.28
45253;BME280;63171;50.520;30.486;2023-06-19T01:41:33;99717.09;;;24.92;46.33
45253;BME280;63171;50.520;30.486;2023-06-19T01:42:24;99716.66;;;24.89;46.17
45253;BME280;63171;50.520;30.486;2023-06-19T01:43:15;99714.28;;;24.79;46.12
45253;BME280;63171;50.520;30.486;2023-06-19T01:44:07;99725.13;;;24.92;46.31
45253;BME280;63171;50.520;30.486;2023-06-19T01:44:58;99718.41;;;24.82;46.11
45253;BME280;63171;50.520;30.486;2023-06-19T01:45:49;99714.34;;;24.86;46.00
45253;BME280;63171;50.520;30.486;2023-06-19T01:46:40;99719.38;;;24.95;46.18
45253;BME280;63171;50.520;30.486;2023-06-19T01:47:30;99719.63;;;24.79;46.17
45253;BME280;63171;50.520;30.486;2023-06-19T01:48:21;99717.09;;;24.71;46.21
45253;BME280;63171;50.520;30.486;2023-06-19T01:49:10;99713.25;;;24.80;46.46
45253;BME280;63171;50.520;30.486;2023-06-19T01:50:01;99719.63;;;24.79;46.08
45253;BME280;63171;50.520;30.486;2023-06-19T01:50:53;99712.28;;;24.66;46.04
45253;BME280;63171;50.520;30.486;2023-06-19T01:51:43;99714.78;;;24.68;46.38
45253;BME280;63171;50.520;30.486;2023-06-19T01:52:33;99719.44;;;24.59;46.12
45253;BME280;63171;50.520;30.486;2023-06-19T01:53:25;99721.44;;;24.57;46.24
45253;BME280;63171;50.520;30.486;2023-06-19T01:54:15;99717.53;;;24.38;46.40
45253;BME280;63171;50.520;30.486;2023-06-19T01:55:07;99722.59;;;24.48;46.41
45253;BME280;63171;50.520;30.486;2023-06-19T01:55:58;99719.34;;;24.53;46.83
45253;BME280;63171;50.520;30.486;2023-06-19T01:56:49;99719.78;;;24.56;46.68
45253;BME280;63171;50.520;30.486;2023-06-19T01:57:39;99725.63;;;24.60;46.82
45253;BME280;63171;50.520;30.486;2023-06-19T01:58:30;99722.19;;;24.66;46.54
45253;BME280;63171;50.520;30.486;2023-06-19T01:59:20;99728.44;;;24.73;46.78
45253;BME280;63171;50.520;30.486;2023-06-19T02:00:12;99714.53;;;24.63;46.85
45253;BME280;63171;50.520;30.486;2023-06-19T02:01:05;99720.13;;;24.46;46.65
45253;BME280;63171;50.520;30.486;2023-06-19T02:01:56;99729.81;;;24.48;46.69
45253;BME280;63171;50.520;30.486;2023-06-19T02:02:45;99727.88;;;24.41;46.51
45253;BME280;63171;50.520;30.486;2023-06-19T02:03:36;99727.13;;;24.48;46.75
45253;BME280;63171;50.520;30.486;2023-06-19T02:04:26;99721.81;;;24.33;46.61
45253;BME280;63171;50.520;30.486;2023-06-19T02:05:16;99715.13;;;24.29;46.86
45253;BME280;63171;50.520;30.486;2023-06-19T02:06:06;99726.50;;;24.45;46.78
45253;BME280;63171;50.520;30.486;2023-06-19T02:06:57;99724.06;;;24.51;47.00
45253;BME280;63171;50.520;30.486;2023-06-19T02:07:47;99727.38;;;24.53;47.05
45253;BME280;63171;50.520;30.486;2023-06-19T02:08:40;99733.19;;;24.56;46.75
45253;BME280;63171;50.520;30.486;2023-06-19T02:09:34;99723.72;;;24.39;47.12
45253;BME280;63171;50.520;30.486;2023-06-19T02:10:25;99727.31;;;24.46;47.28
45253;BME280;63171;50.520;30.486;2023-06-19T02:11:15;99728.00;;;24.33;46.79
45253;BME280;63171;50.520;30.486;2023-06-19T02:12:06;99725.19;;;24.41;46.93
45253;BME280;63171;50.520;30.486;2023-06-19T02:12:56;99728.97;;;24.47;47.27
45253;BME280;63171;50.520;30.486;2023-06-19T02:13:48;99731.66;;;24.47;46.83
45253;BME280;63171;50.520;30.486;2023-06-19T02:14:38;99732.56;;;24.54;46.90
45253;BME280;63171;50.520;30.486;2023-06-19T02:15:29;99723.97;;;24.59;47.28
45253;BME280;63171;50.520;30.486;2023-06-19T02:16:18;99725.91;;;24.50;47.18
45253;BME280;63171;50.520;30.486;2023-06-19T02:17:09;99725.00;;;24.58;46.95
45253;BME280;63171;50.520;30.486;2023-06-19T02:17:59;99724.47;;;24.48;47.14
45253;BME280;63171;50.520;30.486;2023-06-19T02:18:50;99721.09;;;24.60;46.96
45253;BME280;63171;50.520;30.486;2023-06-19T02:19:39;99720.41;;;24.73;46.76
45253;BME280;63171;50.520;30.486;2023-06-19T02:20:30;99734.06;;;24.78;47.23
45253;BME280;63171;50.520;30.486;2023-06-19T02:21:20;99730.78;;;24.61;46.92
45253;BME280;63171;50.520;30.486;2023-06-19T02:22:10;99727.97;;;24.48;46.57
45253;BME280;63171;50.520;30.486;2023-06-19T02:23:01;99724.91;;;24.51;47.00
45253;BME280;63171;50.520;30.486;2023-06-19T02:23:54;99724.25;;;24.49;46.66
45253;BME280;63171;50.520;30.486;2023-06-19T02:24:45;99732.75;;;24.53;46.77
45253;BME280;63171;50.520;30.486;2023-06-19T02:25:36;99727.53;;;24.44;46.64
45253;BME280;63171;50.520;30.486;2023-06-19T02:26:27;99727.97;;;24.48;47.07
45253;BME280;63171;50.520;30.486;2023-06-19T02:27:18;99730.53;;;24.41;47.03
45253;BME280;63171;50.520;30.486;2023-06-19T02:28:08;99726.81;;;24.57;47.15
45253;BME280;63171;50.520;30.486;2023-06-19T02:28:58;99725.25;;;24.63;47.07
45253;BME280;63171;50.520;30.486;2023-06-19T02:29:48;99726.75;;;24.51;46.88
45253;BME280;63171;50.520;30.486;2023-06-19T02:30:39;99724.31;;;24.56;47.00
45253;BME280;63171;50.520;30.486;2023-06-19T02:31:31;99728.34;;;24.45;46.89
45253;BME280;63171;50.520;30.486;2023-06-19T02:32:22;99736.44;;;24.52;47.19
45253;BME280;63171;50.520;30.486;2023-06-19T02:33:12;99726.81;;;24.57;47.35
45253;BME280;63171;50.520;30.486;2023-06-19T02:34:03;99725.16;;;24.56;47.22
45253;BME280;63171;50.520;30.486;2023-06-19T02:34:54;99727.91;;;24.63;46.88
45253;BME280;63171;50.520;30.486;2023-06-19T02:35:44;99726.06;;;24.63;46.93
45253;BME280;63171;50.520;30.486;2023-06-19T02:36:34;99731.22;;;24.65;47.25
45253;BME280;63171;50.520;30.486;2023-06-19T02:37:25;99730.22;;;24.66;47.31
45253;BME280;63171;50.520;30.486;2023-06-19T02:38:14;99730.44;;;24.50;46.69
45253;BME280;63171;50.520;30.486;2023-06-19T02:39:07;99732.19;;;24.42;47.17
45253;BME280;63171;50.520;30.486;2023-06-19T02:39:57;99730.63;;;24.48;47.19
45253;BME280;63171;50.520;30.486;2023-06-19T02:40:48;99738.38;;;24.58;47.21
45253;BME280;63171;50.520;30.486;2023-06-19T02:41:38;99727.97;;;24.69;47.13
45253;BME280;63171;50.520;30.486;2023-06-19T02:42:29;99734.44;;;24.75;47.28
45253;BME280;63171;50.520;30.486;2023-06-19T02:43:18;99733.31;;;24.84;46.98
45253;BME280;63171;50.520;30.486;2023-06-19T02:44:28;99731.31;;;24.71;47.27
45253;BME280;63171;50.520;30.486;2023-06-19T02:45:17;99737.72;;;24.56;46.79
45253;BME280;63171;50.520;30.486;2023-06-19T02:46:10;99730.53;;;24.41;46.69
45253;BME280;63171;50.520;30.486;2023-06-19T02:47:00;99723.00;;;24.45;47.16
45253;BME280;63171;50.520;30.486;2023-06-19T02:47:51;99731.38;;;24.42;46.97
45253;BME280;63171;50.520;30.486;2023-06-19T02:48:41;99732.00;;;24.29;46.86
45253;BME280;63171;50.520;30.486;2023-06-19T02:49:32;99738.31;;;24.36;47.43
45253;BME280;63171;50.520;30.486;2023-06-19T02:50:22;99735.25;;;24.39;46.93
45253;BME280;63171;50.520;30.486;2023-06-19T02:51:12;99727.78;;;24.50;47.29
45253;BME280;63171;50.520;30.486;2023-06-19T02:52:02;99732.50;;;24.48;47.20
45253;BME280;63171;50.520;30.486;2023-06-19T02:52:53;99733.38;;;24.55;47.07
45253;BME280;63171;50.520;30.486;2023-06-19T02:53:43;99732.63;;;24.61;47.06
45253;BME280;63171;50.520;30.486;2023-06-19T02:54:35;99732.16;;;24.57;47.22
45253;BME280;63171;50.520;30.486;2023-06-19T02:55:25;99736.69;;;24.57;47.52
45253;BME280;63171;50.520;30.486;2023-06-19T02:56:16;99737.53;;;24.57;46.96
45253;BME280;63171;50.520;30.486;2023-06-19T02:57:08;99726.50;;;24.67;47.04
45253;BME280;63171;50.520;30.486;2023-06-19T02:57:59;99731.31;;;24.71;47.07
45253;BME280;63171;50.520;30.486;2023-06-19T02:58:49;99733.53;;;24.68;46.85
45253;BME280;63171;50.520;30.486;2023-06-19T02:59:40;99733.53;;;24.68;47.33
45253;BME280;63171;50.520;30.486;2023-06-19T03:00:30;99729.19;;;24.67;47.07
45253;BME280;63171;50.520;30.486;2023-06-19T03:01:20;99723.84;;;24.67;46.83
45253;BME280;63171;50.520;30.486;2023-06-19T03:02:10;99731.13;;;24.73;47.13
45253;BME280;63171;50.520;30.486;2023-06-19T03:03:00;99731.13;;;24.73;47.08
45253;BME280;63171;50.520;30.486;2023-06-19T03:03:51;99729.78;;;24.62;46.67
45253;BME280;63171;50.520;30.486;2023-06-19T03:04:42;99727.91;;;24.63;46.67
45253;BME280;63171;50.520;30.486;2023-06-19T03:05:33;99735.69;;;24.58;46.80
45253;BME280;63171;50.520;30.486;2023-06-19T03:06:24;99732.84;;;24.59;46.73
45253;BME280;63171;50.520;30.486;2023-06-19T03:07:15;99728.16;;;24.68;47.04
45253;BME280;63171;50.520;30.486;2023-06-19T03:08:06;99730.75;;;24.76;47.06
45253;BME280;63171;50.520;30.486;2023-06-19T03:08:56;99721.38;;;24.87;46.90
45253;BME280;63171;50.520;30.486;2023-06-19T03:09:48;99724.06;;;24.87;46.97
45253;BME280;63171;50.520;30.486;2023-06-19T03:10:38;99725.13;;;24.92;46.61
45253;BME280;63171;50.520;30.486;2023-06-19T03:11:29;99729.06;;;24.96;46.84
45253;BME280;63171;50.520;30.486;2023-06-19T03:12:19;99722.53;;;24.99;46.80
45253;BME280;63171;50.520;30.486;2023-06-19T03:13:09;99726.84;;;25.00;46.63
45253;BME280;63171;50.520;30.486;2023-06-19T03:14:00;99729.06;;;24.96;46.73
45253;BME280;63171;50.520;30.486;2023-06-19T03:14:56;99721.22;;;24.95;46.35
45253;BME280;63171;50.520;30.486;2023-06-19T03:15:48;99732.97;;;24.94;46.60
45253;BME280;63171;50.520;30.486;2023-06-19T03:16:39;99732.44;;;24.84;46.18
45253;BME280;63171;50.520;30.486;2023-06-19T03:17:29;99732.00;;;24.80;46.30
45253;BME280;63171;50.520;30.486;2023-06-19T03:18:20;99730.63;;;24.84;46.36
45253;BME280;63171;50.520;30.486;2023-06-19T03:19:09;99732.97;;;24.94;46.55
45253;BME280;63171;50.520;30.486;2023-06-19T03:20:00;99725.03;;;25.00;46.60
45253;BME280;63171;50.520;30.486;2023-06-19T03:20:50;99732.50;;;25.05;46.51
45253;BME280;63171;50.520;30.486;2023-06-19T03:21:41;99733.13;;;25.07;46.18
45253;BME280;63171;50.520;30.486;2023-06-19T03:22:31;99732.94;;;25.09;46.14
45253;BME280;63171;50.520;30.486;2023-06-19T03:23:22;99737.09;;;25.11;46.21
45253;BME280;63171;50.520;30.486;2023-06-19T03:24:12;99733.75;;;25.09;46.10
45253;BME280;63171;50.520;30.486;2023-06-19T03:25:05;99734.41;;;25.11;46.25
45253;BME280;63171;50.520;30.486;2023-06-19T03:25:55;99736.19;;;25.04;46.29
45253;BME280;63171;50.520;30.486;2023-06-19T03:26:47;99741.78;;;25.09;46.06
45253;BME280;63171;50.520;30.486;2023-06-19T03:27:37;99741.75;;;25.02;45.99
45253;BME280;63171;50.520;30.486;2023-06-19T03:28:28;99740.53;;;25.05;46.02
45253;BME280;63171;50.520;30.486;2023-06-19T03:29:18;99733.56;;;25.11;45.90
45253;BME280;63171;50.520;30.486;2023-06-19T03:30:18;99738.91;;;25.11;46.10
45253;BME280;63171;50.520;30.486;2023-06-19T03:31:10;99737.03;;;25.04;46.26
45253;BME280;63171;50.520;30.486;2023-06-19T03:32:01;99739.50;;;25.06;46.15
45253;BME280;63171;50.520;30.486;2023-06-19T03:32:55;99730.72;;;25.12;46.12
45253;BME280;63171;50.520;30.486;2023-06-19T03:34:03;99728.03;;;25.12;46.13
45253;BME280;63171;50.520;30.486;2023-06-19T03:34:53;99734.59;;;25.10;46.02
45253;BME280;63171;50.520;30.486;2023-06-19T03:35:43;99729.06;;;25.11;46.16
45253;BME280;63171;50.520;30.486;2023-06-19T03:36:39;99729.06;;;25.11;46.14
45253;BME280;63171;50.520;30.486;2023-06-19T03:37:34;99728.66;;;25.14;46.08
45253;BME280;63171;50.520;30.486;2023-06-19T03:38:25;99738.09;;;25.10;46.32
45253;BME280;63171;50.520;30.486;2023-06-19T03:39:17;99732.50;;;25.05;46.22
45253;BME280;63171;50.520;30.486;2023-06-19T03:40:10;99726.53;;;25.10;46.26
45253;BME280;63171;50.520;30.486;2023-06-19T03:41:05;99726.00;;;25.14;45.78
45253;BME280;63171;50.520;30.486;2023-06-19T03:41:54;99727.44;;;25.17;46.13
45253;BME280;63171;50.520;30.486;2023-06-19T03:42:44;99731.16;;;25.16;46.30
45253;BME280;63171;50.520;30.486;2023-06-19T03:43:36;99729.63;;;25.07;46.04
45253;BME280;63171;50.520;30.486;2023-06-19T03:44:27;99726.53;;;25.10;45.94
45253;BME280;63171;50.520;30.486;2023-06-19T03:45:17;99726.00;;;25.14;46.04
45253;BME280;63171;50.520;30.486;2023-06-19T03:46:08;99724.06;;;25.08;46.02
45253;BME280;63171;50.520;30.486;2023-06-19T03:46:59;99724.66;;;25.03;45.86
45253;BME280;63171;50.520;30.486;2023-06-19T03:47:49;99727.75;;;24.86;45.79
45253;BME280;63171;50.520;30.486;2023-06-19T03:48:39;99729.22;;;24.88;45.76
45253;BME280;63171;50.520;30.486;2023-06-19T03:49:29;99723.06;;;24.94;45.91
45253;BME280;63171;50.520;30.486;2023-06-19T03:50:20;99724.41;;;24.84;46.28
45253;BME280;63171;50.520;30.486;2023-06-19T03:51:10;99729.22;;;24.88;46.00
45253;BME280;63171;50.520;30.486;2023-06-19T03:52:01;99724.53;;;24.97;46.18
45253;BME280;63171;50.520;30.486;2023-06-19T03:53:10;99725.47;;;25.04;46.32
45253;BME280;63171;50.520;30.486;2023-06-19T03:54:01;99733.94;;;25.08;46.04
45253;BME280;63171;50.520;30.486;2023-06-19T03:54:52;99726.69;;;25.01;46.05
45253;BME280;63171;50.520;30.486;2023-06-19T03:55:44;99723.88;;;25.10;46.06
45253;BME280;63171;50.520;30.486;2023-06-19T03:56:35;99726.81;;;25.15;46.20
45253;BME280;63171;50.520;30.486;2023-06-19T03:57:26;99729.88;;;25.12;45.88
45253;BME280;63171;50.520;30.486;2023-06-19T03:58:16;99724.88;;;25.09;46.09
45253;BME280;63171;50.520;30.486;2023-06-19T03:59:07;99725.53;;;25.11;46.00
45253;BME280;63171;50.520;30.486;2023-06-19T03:59:57;99728.53;;;25.01;45.49
45253;BME280;63171;50.520;30.486;2023-06-19T04:00:48;99728.72;;;24.99;45.74
45253;BME280;63171;50.520;30.486;2023-06-19T04:01:37;99723.06;;;24.94;45.95
45253;BME280;63171;50.520;30.486;2023-06-19T04:02:28;99729.53;;;25.00;45.92
45253;BME280;63171;50.520;30.486;2023-06-19T04:03:17;99730.19;;;25.02;45.66
45253;BME280;63171;50.520;30.486;2023-06-19T04:04:09;99723.19;;;25.01;45.70
45253;BME280;63171;50.520;30.486;2023-06-19T04:04:58;99727.75;;;25.07;45.52
45253;BME280;63171;50.520;30.486;2023-06-19T04:05:49;99730.72;;;25.12;45.75
45253;BME280;63171;50.520;30.486;2023-06-19T04:06:39;99729.31;;;25.16;45.87
45253;BME280;63171;50.520;30.486;2023-06-19T04:07:29;99722.13;;;25.23;45.75
45253;BME280;63171;50.520;30.486;2023-06-19T04:08:20;99732.47;;;25.26;45.46
45253;BME280;63171;50.520;30.486;2023-06-19T04:09:11;99729.81;;;25.26;45.56
45253;BME280;63171;50.520;30.486;2023-06-19T04:10:02;99729.31;;;25.16;45.64
45253;BME280;63171;50.520;30.486;2023-06-19T04:10:55;99732.41;;;24.98;45.39
45253;BME280;63171;50.520;30.486;2023-06-19T04:11:44;99731.66;;;25.04;45.49
45253;BME280;63171;50.520;30.486;2023-06-19T04:12:36;99732.56;;;25.12;45.56
45253;BME280;63171;50.520;30.486;2023-06-19T04:13:28;99734.91;;;25.00;45.46
45253;BME280;63171;50.520;30.486;2023-06-19T04:14:18;99731.13;;;24.94;45.44
45253;BME280;63171;50.520;30.486;2023-06-19T04:15:09;99728.97;;;25.04;45.90
45253;BME280;63171;50.520;30.486;2023-06-19T04:15:59;99736.00;;;25.05;45.64
45253;BME280;63171;50.520;30.486;2023-06-19T04:16:51;99732.69;;;25.03;45.78
45253;BME280;63171;50.520;30.486;2023-06-19T04:17:40;99724.69;;;25.10;45.80
45253;BME280;63171;50.520;30.486;2023-06-19T04:18:32;99733.56;;;25.11;45.77
45253;BME280;63171;50.520;30.486;2023-06-19T04:19:21;99729.31;;;25.16;45.67
45253;BME280;63171;50.520;30.486;2023-06-19T04:20:13;99731.19;;;25.22;45.56
45253;BME280;63171;50.520;30.486;2023-06-19T04:21:03;99726.09;;;25.27;45.88
45253;BME280;63171;50.520;30.486;2023-06-19T04:21:55;99730.00;;;25.25;45.72
45253;BME280;63171;50.520;30.486;2023-06-19T04:22:46;99729.72;;;25.20;45.34
45253;BME280;63171;50.520;30.486;2023-06-19T04:23:36;99730.53;;;25.14;45.48
45253;BME280;63171;50.520;30.486;2023-06-19T04:24:27;99733.25;;;24.99;45.29
45253;BME280;63171;50.520;30.486;2023-06-19T04:25:16;99728.06;;;24.97;45.36
45253;BME280;63171;50.520;30.486;2023-06-19T04:26:08;99728.44;;;24.94;45.57
45253;BME280;63171;50.520;30.486;2023-06-19T04:26:58;99730.75;;;24.97;45.82
45253;BME280;63171;50.520;30.486;2023-06-19T04:27:48;99730.84;;;25.04;45.90
45253;BME280;63171;50.520;30.486;2023-06-19T04:28:39;99724.34;;;25.13;45.80
45253;BME280;63171;50.520;30.486;2023-06-19T04:29:29;99727.25;;;25.18;45.73
45253;BME280;63171;50.520;30.486;2023-06-19T04:30:20;99725.28;;;25.27;46.16